Time;durP1;ratioP1;P1;durP2;ratioP2;P2;SDS_P1;SDS_P2;PMS_P1;PMS_P2;Temp;Humidity;BMP_temperature;BMP_pressure;BME280_temperature;BME280_humidity;BME280_pressure;Samples;Min_cycle;Max_cycle;Signal;HPM_P1;HPM_P2
2021/04/30 00:02:22;;;;;;;5.88;4.78;;;11.30;99.90;;;;;;4969026;28;20100;-65
2021/04/30 00:04:48;;;;;;;5.03;4.63;;;11.40;99.90;;;;;;4970800;28;20039;-65
2021/04/30 00:07:14;;;;;;;5.82;5.43;;;11.30;99.90;;;;;;4967593;28;20034;-65
2021/04/30 00:09:40;;;;;;;7.60;5.43;;;11.30;99.90;;;;;;4971220;28;20054;-64
2021/04/30 00:12:06;;;;;;;6.45;5.32;;;11.20;99.90;;;;;;4965225;28;20050;-64
2021/04/30 00:14:32;;;;;;;6.03;4.90;;;11.40;99.90;;;;;;4972764;28;20080;-65
2021/04/30 00:16:58;;;;;;;5.22;4.82;;;11.40;99.90;;;;;;4963653;28;20027;-65
2021/04/30 00:19:25;;;;;;;5.20;4.70;;;11.40;99.90;;;;;;4972409;28;20038;-64
2021/04/30 00:21:50;;;;;;;7.95;5.30;;;11.40;99.90;;;;;;4965749;28;20105;-65
2021/04/30 00:24:16;;;;;;;6.05;4.95;;;11.20;99.90;;;;;;4972447;28;20058;-65
2021/04/30 00:26:42;;;;;;;5.72;4.80;;;11.30;99.90;;;;;;4962657;28;20147;-65
2021/04/30 00:29:08;;;;;;;6.82;5.10;;;11.20;99.90;;;;;;4972376;28;20035;-65
2021/04/30 00:31:35;;;;;;;5.10;4.70;;;11.20;99.90;;;;;;4962726;28;20682;-65
2021/04/30 00:34:02;;;;;;;6.90;3.65;;;11.20;99.90;;;;;;4968590;28;20039;-65
2021/04/30 00:36:28;;;;;;;5.15;4.05;;;11.00;99.90;;;;;;4966454;28;20554;-65
2021/04/30 00:38:55;;;;;;;5.20;4.13;;;11.20;99.90;;;;;;4971273;28;20066;-65
2021/04/30 00:41:20;;;;;;;4.53;4.13;;;11.20;99.90;;;;;;4968740;28;20403;-65
2021/04/30 00:43:46;;;;;;;4.30;3.55;;;11.00;99.90;;;;;;4972242;28;20034;-65
2021/04/30 00:46:12;;;;;;;4.68;3.72;;;11.10;99.90;;;;;;4965802;28;20179;-65
2021/04/30 00:48:39;;;;;;;4.97;3.42;;;10.90;99.90;;;;;;4971661;28;20134;-65
2021/04/30 00:51:05;;;;;;;3.95;3.35;;;11.10;99.90;;;;;;4964321;28;20057;-64
2021/04/30 00:53:30;;;;;;;4.30;3.58;;;10.90;99.90;;;;;;4969587;28;20090;-65
2021/04/30 00:55:56;;;;;;;5.80;3.15;;;11.00;99.90;;;;;;4966445;28;20023;-65
2021/04/30 00:58:22;;;;;;;3.78;3.47;;;11.00;99.90;;;;;;4971620;28;20119;-65
2021/04/30 01:00:48;;;;;;;3.53;3.22;;;10.90;99.90;;;;;;4968651;28;20037;-65
2021/04/30 01:03:14;;;;;;;4.53;3.20;;;10.90;99.90;;;;;;4964641;28;20090;-65
2021/04/30 01:05:39;;;;;;;4.10;2.85;;;10.90;99.90;;;;;;4967955;28;20034;-65
2021/04/30 01:08:06;;;;;;;7.40;3.40;;;10.90;99.90;;;;;;4964018;28;20039;-65
2021/04/30 01:10:32;;;;;;;3.17;2.67;;;11.00;99.90;;;;;;4966683;28;20538;-65
2021/04/30 01:12:58;;;;;;;5.30;2.80;;;10.90;99.90;;;;;;4971562;28;20033;-65
2021/04/30 01:15:24;;;;;;;2.80;2.58;;;10.70;99.90;;;;;;4968323;28;20039;-65
2021/04/30 01:17:50;;;;;;;3.20;2.65;;;10.70;99.90;;;;;;4970072;28;20480;-65
2021/04/30 01:20:18;;;;;;;5.53;3.17;;;10.60;99.90;;;;;;4969758;28;20049;-65
2021/04/30 01:22:47;;;;;;;4.32;3.05;;;10.70;99.90;;;;;;4963892;28;20022;-65
2021/04/30 01:25:18;;;;;;;5.40;3.53;;;10.60;99.90;;;;;;4958618;28;20026;-65
2021/04/30 01:27:44;;;;;;;5.43;3.20;;;10.60;99.90;;;;;;4963281;28;20391;-64
2021/04/30 01:30:14;;;;;;;5.78;3.00;;;10.40;99.90;;;;;;4969495;28;20037;-64
2021/04/30 01:32:40;;;;;;;5.70;3.20;;;10.40;99.90;;;;;;4962562;28;20060;-65
2021/04/30 01:35:07;;;;;;;3.78;3.25;;;10.60;99.90;;;;;;4968008;28;20023;-65
2021/04/30 01:37:33;;;;;;;4.88;3.53;;;10.40;99.90;;;;;;4963561;28;20023;-65
2021/04/30 01:39:59;;;;;;;7.45;3.45;;;10.60;99.90;;;;;;4965447;28;20088;-64
2021/04/30 01:42:24;;;;;;;4.70;3.20;;;10.60;99.90;;;;;;4959882;28;20027;-65
2021/04/30 01:44:50;;;;;;;4.07;3.17;;;10.60;99.90;;;;;;4959392;28;20544;-65
2021/04/30 01:47:17;;;;;;;6.68;3.65;;;10.60;99.90;;;;;;4962145;28;20218;-65
2021/04/30 01:49:44;;;;;;;4.72;2.88;;;10.60;99.90;;;;;;4969885;28;20042;-65
2021/04/30 01:52:10;;;;;;;3.58;3.03;;;10.70;99.90;;;;;;4964978;28;20030;-65
2021/04/30 01:54:36;;;;;;;4.88;3.40;;;10.60;99.90;;;;;;4959041;28;20022;-65
2021/04/30 01:57:01;;;;;;;5.70;2.83;;;10.50;99.90;;;;;;4965766;28;20097;-64
2021/04/30 01:59:27;;;;;;;4.82;3.20;;;10.50;99.90;;;;;;4970934;28;20026;-64
2021/04/30 02:01:53;;;;;;;5.75;2.75;;;10.60;99.90;;;;;;4964389;28;20027;-64
2021/04/30 02:04:18;;;;;;;3.40;3.10;;;10.60;99.90;;;;;;4969053;28;20046;-65
2021/04/30 02:06:46;;;;;;;5.68;3.10;;;10.50;99.90;;;;;;4964507;28;20038;-64
2021/04/30 02:09:12;;;;;;;4.32;2.92;;;10.60;99.90;;;;;;4965632;28;20035;-64
2021/04/30 02:11:38;;;;;;;3.42;3.13;;;10.50;99.90;;;;;;4964084;28;20790;-64
2021/04/30 02:14:04;;;;;;;3.47;2.80;;;10.50;99.90;;;;;;4970891;28;20049;-64
2021/04/30 02:16:31;;;;;;;4.07;3.25;;;10.40;99.90;;;;;;4968234;28;20046;-64
2021/04/30 02:18:57;;;;;;;4.15;2.75;;;10.50;99.90;;;;;;4970666;28;20022;-65
2021/04/30 02:21:23;;;;;;;2.70;2.50;;;10.60;99.90;;;;;;4963452;28;20404;-64
2021/04/30 02:23:49;;;;;;;3.90;2.75;;;10.50;99.90;;;;;;4970195;28;20029;-64
2021/04/30 02:26:16;;;;;;;2.83;2.38;;;10.50;99.90;;;;;;4964222;28;20111;-65
2021/04/30 02:28:45;;;;;;;3.42;2.35;;;10.30;99.90;;;;;;4970760;28;20698;-64
2021/04/30 02:31:13;;;;;;;4.10;2.60;;;10.40;99.90;;;;;;4964146;28;20026;-64
2021/04/30 02:33:39;;;;;;;7.10;2.70;;;10.50;99.90;;;;;;4970605;28;20027;-64
2021/04/30 02:36:05;;;;;;;5.63;2.75;;;10.40;99.90;;;;;;4963380;28;20019;-64
2021/04/30 02:38:31;;;;;;;3.10;2.45;;;10.30;99.90;;;;;;4969194;28;20022;-64
2021/04/30 02:40:57;;;;;;;5.75;2.40;;;10.40;99.90;;;;;;4964335;28;20031;-64
2021/04/30 02:43:23;;;;;;;5.80;2.47;;;10.50;99.90;;;;;;4970143;28;20634;-64
2021/04/30 02:45:51;;;;;;;2.88;2.28;;;10.50;99.90;;;;;;4967201;28;20031;-64
2021/04/30 02:48:25;;;;;;;5.93;2.70;;;10.50;99.90;;;;;;4970263;28;20089;-64
2021/04/30 02:50:51;;;;;;;3.28;2.22;;;10.50;99.90;;;;;;4963190;28;20114;-64
2021/04/30 02:53:17;;;;;;;6.10;2.35;;;10.40;99.90;;;;;;4970190;28;20027;-64
2021/04/30 02:55:43;;;;;;;3.08;2.38;;;10.40;99.90;;;;;;4964105;28;20031;-64
2021/04/30 02:58:10;;;;;;;2.63;2.17;;;10.50;99.90;;;;;;4970123;28;20023;-65
2021/04/30 03:00:36;;;;;;;5.07;2.58;;;10.60;99.90;;;;;;4964445;28;20028;-64
2021/04/30 03:03:02;;;;;;;3.75;2.13;;;10.50;99.90;;;;;;4972723;28;20030;-64
2021/04/30 03:05:28;;;;;;;9.20;2.55;;;10.40;99.90;;;;;;4968610;28;20123;-64
2021/04/30 03:07:54;;;;;;;2.40;2.20;;;10.50;99.90;;;;;;4971994;28;20089;-64
2021/04/30 03:10:20;;;;;;;5.68;2.42;;;10.40;99.90;;;;;;4969141;28;20042;-64
2021/04/30 03:12:49;;;;;;;2.88;1.88;;;10.50;99.90;;;;;;4962031;28;20449;-63
2021/04/30 03:15:16;;;;;;;2.30;2.05;;;10.50;99.90;;;;;;4969500;28;20113;-64
2021/04/30 03:17:45;;;;;;;4.18;1.90;;;10.50;99.90;;;;;;4969532;28;20026;-64
2021/04/30 03:20:12;;;;;;;5.30;2.67;;;10.50;99.90;;;;;;4970874;28;20027;-64
2021/04/30 03:22:38;;;;;;;5.07;2.33;;;10.50;99.90;;;;;;4963680;28;20037;-64
2021/04/30 03:25:05;;;;;;;4.70;2.17;;;10.40;99.90;;;;;;4968232;28;20034;-64
2021/04/30 03:27:31;;;;;;;4.53;2.47;;;10.50;99.90;;;;;;4963993;28;20110;-64
2021/04/30 03:29:57;;;;;;;4.10;2.38;;;10.40;99.90;;;;;;4962579;28;20133;-64
2021/04/30 03:32:24;;;;;;;4.10;2.10;;;10.40;99.90;;;;;;4961960;28;20097;-64
2021/04/30 03:34:51;;;;;;;3.28;1.95;;;10.40;99.90;;;;;;4966882;28;20097;-64
2021/04/30 03:37:17;;;;;;;2.42;2.22;;;10.40;99.90;;;;;;4964140;28;20022;-64
2021/04/30 03:39:43;;;;;;;4.50;2.63;;;10.40;99.90;;;;;;4970030;28;20031;-65
2021/04/30 03:42:08;;;;;;;4.43;2.40;;;10.30;99.90;;;;;;4969726;28;20104;-64
2021/04/30 03:44:34;;;;;;;3.78;2.42;;;10.30;99.90;;;;;;4972734;28;20406;-64
2021/04/30 03:47:00;;;;;;;5.80;2.42;;;10.30;99.90;;;;;;4964995;28;20046;-64
2021/04/30 03:49:26;;;;;;;3.03;2.13;;;10.30;99.90;;;;;;4962924;28;20038;-64
2021/04/30 03:51:51;;;;;;;5.63;2.38;;;10.20;99.90;;;;;;4965464;28;20034;-64
2021/04/30 03:54:17;;;;;;;2.60;2.40;;;10.20;99.90;;;;;;4970648;28;20054;-64
2021/04/30 03:56:43;;;;;;;4.47;2.33;;;10.10;99.90;;;;;;4968569;28;20547;-65
2021/04/30 03:59:08;;;;;;;3.70;2.80;;;10.20;99.90;;;;;;4966690;28;20111;-65
2021/04/30 04:01:34;;;;;;;2.60;2.40;;;10.20;99.90;;;;;;4959515;28;20058;-65
2021/04/30 04:04:00;;;;;;;3.95;2.25;;;10.20;99.90;;;;;;4956666;28;20042;-64
2021/04/30 04:06:26;;;;;;;3.45;2.38;;;10.30;99.90;;;;;;4965977;28;20027;-65
2021/04/30 04:08:51;;;;;;;2.65;2.17;;;10.20;99.90;;;;;;4969062;28;20079;-64
2021/04/30 04:11:17;;;;;;;3.00;2.17;;;10.20;99.90;;;;;;4968201;28;20043;-64
2021/04/30 04:13:43;;;;;;;4.35;2.90;;;10.20;99.90;;;;;;4959420;28;20523;-64
2021/04/30 04:16:08;;;;;;;4.97;3.10;;;10.10;99.90;;;;;;4957111;28;20034;-64
2021/04/30 04:18:34;;;;;;;5.47;2.70;;;10.10;99.90;;;;;;4967683;28;20034;-64
2021/04/30 04:21:00;;;;;;;3.60;3.30;;;10.10;99.90;;;;;;4969334;28;20042;-64
2021/04/30 04:23:25;;;;;;;3.72;2.92;;;10.10;99.90;;;;;;4971182;28;20035;-64
2021/04/30 04:25:51;;;;;;;4.45;3.15;;;10.30;99.90;;;;;;4968333;28;20106;-64
2021/04/30 04:28:17;;;;;;;3.97;3.28;;;10.20;99.90;;;;;;4954999;28;20424;-64
2021/04/30 04:30:43;;;;;;;3.72;2.88;;;10.20;99.90;;;;;;4957536;28;20030;-64
2021/04/30 04:33:08;;;;;;;4.00;3.30;;;10.20;99.90;;;;;;4964143;28;20513;-65
2021/04/30 04:35:34;;;;;;;3.60;3.28;;;10.20;99.90;;;;;;4960924;28;20031;-64
2021/04/30 04:38:00;;;;;;;5.18;3.47;;;10.20;99.90;;;;;;4965057;28;20021;-65
2021/04/30 04:40:26;;;;;;;4.75;4.10;;;10.20;99.90;;;;;;4960710;28;20034;-65
2021/04/30 04:42:52;;;;;;;3.75;3.45;;;10.10;99.90;;;;;;4969837;28;20510;-64
2021/04/30 04:45:19;;;;;;;8.10;4.20;;;10.20;99.90;;;;;;4964610;28;20023;-64
2021/04/30 04:47:45;;;;;;;5.65;4.10;;;10.10;99.90;;;;;;4961080;28;20102;-64
2021/04/30 04:50:12;;;;;;;4.85;4.35;;;10.30;99.90;;;;;;4968745;28;20131;-65
2021/04/30 04:52:39;;;;;;;4.53;4.13;;;10.20;99.90;;;;;;4963119;28;20023;-65
2021/04/30 04:55:06;;;;;;;6.65;4.28;;;10.30;99.90;;;;;;4959894;28;20031;-65
2021/04/30 04:57:32;;;;;;;5.10;4.13;;;10.20;99.90;;;;;;4957355;28;20027;-65
2021/04/30 04:59:58;;;;;;;4.38;3.88;;;10.30;99.90;;;;;;4955862;28;20019;-64
2021/04/30 05:02:24;;;;;;;5.28;4.00;;;10.10;99.90;;;;;;4964088;28;20538;-65
2021/04/30 05:04:50;;;;;;;5.65;4.90;;;10.20;99.90;;;;;;4970359;28;20026;-64
2021/04/30 05:07:16;;;;;;;4.57;4.25;;;10.10;99.90;;;;;;4968161;28;20035;-64
2021/04/30 05:09:42;;;;;;;4.68;4.28;;;10.20;99.90;;;;;;4962408;28;20158;-64
2021/04/30 05:12:08;;;;;;;4.53;4.20;;;10.20;99.90;;;;;;4966285;28;20042;-65
2021/04/30 05:14:34;;;;;;;5.65;4.47;;;10.20;99.90;;;;;;4971603;28;20672;-64
2021/04/30 05:16:59;;;;;;;6.00;4.80;;;10.30;99.90;;;;;;4965390;28;20114;-64
2021/04/30 05:19:25;;;;;;;5.43;4.68;;;10.10;99.90;;;;;;4969885;28;20093;-65
2021/04/30 05:21:51;;;;;;;6.72;4.82;;;10.20;99.90;;;;;;4965252;28;20070;-64
2021/04/30 05:24:17;;;;;;;5.53;5.00;;;10.30;99.90;;;;;;4961509;28;20033;-64
2021/04/30 05:26:42;;;;;;;5.38;4.88;;;10.30;99.90;;;;;;4965986;28;20073;-65
2021/04/30 05:29:08;;;;;;;8.13;5.13;;;10.30;99.90;;;;;;4970732;28;20049;-65
2021/04/30 05:31:37;;;;;;;5.50;4.35;;;10.20;99.90;;;;;;4960680;28;20059;-64
2021/04/30 05:34:03;;;;;;;4.93;4.45;;;10.20;99.90;;;;;;4959572;28;20399;-65
2021/04/30 05:36:30;;;;;;;5.45;4.45;;;10.20;99.90;;;;;;4955605;28;20059;-65
2021/04/30 05:38:56;;;;;;;6.28;4.25;;;10.20;99.90;;;;;;4967414;28;20062;-65
2021/04/30 05:41:21;;;;;;;4.70;4.05;;;10.30;99.90;;;;;;4959754;28;20516;-65
2021/04/30 05:43:47;;;;;;;4.43;4.05;;;10.30;99.90;;;;;;4954773;28;20111;-65
2021/04/30 05:46:13;;;;;;;3.78;3.47;;;10.30;99.90;;;;;;4958711;28;20081;-65
2021/04/30 05:48:39;;;;;;;4.40;4.00;;;10.40;99.90;;;;;;4967573;28;20058;-65
2021/04/30 05:51:05;;;;;;;4.05;3.33;;;10.40;99.90;;;;;;4967171;28;20426;-64
2021/04/30 05:53:31;;;;;;;4.57;4.07;;;10.40;99.90;;;;;;4967144;28;20178;-65
2021/04/30 05:55:56;;;;;;;6.30;4.20;;;10.50;99.90;;;;;;4968433;28;20141;-65
2021/04/30 05:58:22;;;;;;;5.13;4.70;;;10.50;99.90;;;;;;4962620;28;20118;-65
2021/04/30 06:00:48;;;;;;;6.40;4.07;;;10.40;99.90;;;;;;4959558;28;20048;-65
2021/04/30 06:03:13;;;;;;;5.68;4.05;;;10.40;99.90;;;;;;4966101;28;20038;-66
2021/04/30 06:05:39;;;;;;;5.35;3.90;;;10.80;99.90;;;;;;4968771;28;20033;-66
2021/04/30 06:08:05;;;;;;;4.53;4.22;;;10.70;99.90;;;;;;4962966;28;20030;-66
2021/04/30 06:10:30;;;;;;;5.28;4.78;;;10.70;99.90;;;;;;4967679;28;20135;-66
2021/04/30 06:13:02;;;;;;;5.18;4.80;;;10.80;99.90;;;;;;4962355;28;20026;-66
2021/04/30 06:15:28;;;;;;;5.55;5.05;;;10.70;99.90;;;;;;4968495;28;20112;-66
2021/04/30 06:17:53;;;;;;;5.82;5.30;;;10.60;99.90;;;;;;4969881;28;20067;-66
2021/04/30 06:20:19;;;;;;;5.03;4.53;;;10.70;99.90;;;;;;4959372;28;20082;-66
2021/04/30 06:22:45;;;;;;;6.25;4.40;;;10.70;99.90;;;;;;4968873;28;20087;-66
2021/04/30 06:25:10;;;;;;;5.85;5.35;;;10.60;99.90;;;;;;4968552;28;20023;-66
2021/04/30 06:27:37;;;;;;;5.70;5.20;;;10.70;99.90;;;;;;4964833;28;20030;-66
2021/04/30 06:30:03;;;;;;;5.75;5.25;;;10.70;99.90;;;;;;4968375;28;20149;-66
2021/04/30 06:32:29;;;;;;;5.45;4.95;;;10.80;99.90;;;;;;4965960;28;20023;-66
2021/04/30 06:34:55;;;;;;;7.40;5.40;;;10.90;99.90;;;;;;4968957;28;20034;-66
2021/04/30 06:37:20;;;;;;;7.05;5.47;;;10.70;99.90;;;;;;4968976;28;20070;-66
2021/04/30 06:39:46;;;;;;;6.43;5.82;;;10.80;99.90;;;;;;4973271;28;20570;-67
2021/04/30 06:42:12;;;;;;;5.65;5.05;;;10.80;99.90;;;;;;4963926;28;20114;-66
2021/04/30 06:44:37;;;;;;;4.97;4.57;;;10.80;99.90;;;;;;4964163;28;20089;-67
2021/04/30 06:47:03;;;;;;;6.13;5.63;;;10.70;99.90;;;;;;4960422;28;20468;-67
2021/04/30 06:49:29;;;;;;;5.88;5.05;;;10.80;99.90;;;;;;4954258;28;20035;-66
2021/04/30 06:51:55;;;;;;;5.88;5.20;;;10.90;99.90;;;;;;4960149;28;20056;-66
2021/04/30 06:54:21;;;;;;;7.20;5.43;;;11.00;99.90;;;;;;4957535;28;20111;-66
2021/04/30 06:56:47;;;;;;;7.32;5.85;;;11.00;99.90;;;;;;4965292;28;20106;-67
2021/04/30 06:59:12;;;;;;;5.07;4.78;;;11.10;99.90;;;;;;4968726;28;20034;-65
2021/04/30 07:01:41;;;;;;;6.18;5.38;;;11.10;99.90;;;;;;4961216;28;20023;-65
2021/04/30 07:04:07;;;;;;;5.60;5.07;;;11.10;99.90;;;;;;4967421;28;20019;-66
2021/04/30 07:06:34;;;;;;;8.15;5.57;;;11.00;99.90;;;;;;4959455;28;20110;-67
2021/04/30 07:09:00;;;;;;;5.93;5.32;;;11.10;99.90;;;;;;4972656;28;20399;-67
2021/04/30 07:11:26;;;;;;;6.10;5.07;;;11.10;99.90;;;;;;4960709;28;20193;-67
2021/04/30 07:13:52;;;;;;;6.75;4.80;;;11.20;99.90;;;;;;4968725;28;20464;-66
2021/04/30 07:16:17;;;;;;;5.15;4.75;;;11.10;99.90;;;;;;4968643;28;20026;-67
2021/04/30 07:18:43;;;;;;;6.40;4.50;;;11.10;99.90;;;;;;4969823;28;20539;-66
2021/04/30 07:21:09;;;;;;;5.25;4.53;;;11.20;99.90;;;;;;4961979;28;20038;-67
2021/04/30 07:23:35;;;;;;;5.75;3.80;;;10.90;99.90;;;;;;4960814;28;20384;-63
2021/04/30 07:26:03;;;;;;;6.72;3.40;;;11.10;99.90;;;;;;4960375;28;20046;-63
2021/04/30 07:28:29;;;;;;;3.30;3.10;;;11.30;99.90;;;;;;4973544;28;20134;-63
2021/04/30 07:30:55;;;;;;;3.10;2.80;;;11.20;99.90;;;;;;4969606;28;20150;-57
2021/04/30 07:33:21;;;;;;;3.53;2.72;;;11.30;99.90;;;;;;4973097;28;20460;-67
2021/04/30 07:35:46;;;;;;;3.80;3.00;;;11.90;99.90;;;;;;4965688;28;20028;-66
2021/04/30 07:38:12;;;;;;;4.57;4.00;;;11.60;99.90;;;;;;4971200;28;20058;-66
2021/04/30 07:40:40;;;;;;;4.90;3.95;;;11.50;99.90;;;;;;4970991;28;20031;-66
2021/04/30 07:43:10;;;;;;;4.65;3.80;;;11.60;99.90;;;;;;4960744;28;20023;-66
2021/04/30 07:45:37;;;;;;;3.72;3.42;;;11.60;99.90;;;;;;4960891;28;20122;-66
2021/04/30 07:48:03;;;;;;;3.85;3.33;;;11.40;99.90;;;;;;4971826;28;20022;-65
2021/04/30 07:50:29;;;;;;;5.22;3.70;;;11.30;99.90;;;;;;4968120;28;20045;-66
2021/04/30 07:52:54;;;;;;;4.00;3.35;;;11.30;99.90;;;;;;4964921;28;20030;-66
2021/04/30 07:55:20;;;;;;;3.42;2.92;;;11.30;99.90;;;;;;4969993;28;20057;-66
2021/04/30 07:57:46;;;;;;;3.83;2.65;;;11.50;99.90;;;;;;4969893;28;20106;-65
2021/04/30 08:00:12;;;;;;;3.97;2.80;;;11.60;99.90;;;;;;4971085;28;20030;-67
2021/04/30 08:02:38;;;;;;;3.28;3.00;;;11.50;99.90;;;;;;4968327;28;20042;-65
2021/04/30 08:05:04;;;;;;;5.78;3.40;;;11.50;99.90;;;;;;4970786;28;20031;-65
2021/04/30 08:07:30;;;;;;;3.45;3.10;;;11.60;99.90;;;;;;4967653;28;20031;-65
2021/04/30 08:09:55;;;;;;;3.30;2.92;;;11.60;99.90;;;;;;4969238;28;20496;-65
2021/04/30 08:12:22;;;;;;;3.42;3.13;;;11.90;99.90;;;;;;4966623;28;20567;-68
2021/04/30 08:14:47;;;;;;;3.65;3.17;;;11.80;99.90;;;;;;4969193;28;20050;-68
2021/04/30 08:17:13;;;;;;;4.38;2.40;;;11.70;99.90;;;;;;4960748;28;20057;-68
2021/04/30 08:19:39;;;;;;;3.20;2.90;;;11.80;99.90;;;;;;4952993;28;20106;-68
2021/04/30 08:22:05;;;;;;;3.67;2.72;;;11.80;99.90;;;;;;4960004;28;20031;-67
2021/04/30 08:24:31;;;;;;;5.10;3.28;;;11.80;99.90;;;;;;4969511;28;20046;-68
2021/04/30 08:26:58;;;;;;;5.30;2.60;;;11.90;99.90;;;;;;4966032;28;20054;-66
2021/04/30 08:29:24;;;;;;;4.25;3.00;;;12.00;99.90;;;;;;4953158;28;20122;-67
2021/04/30 08:31:49;;;;;;;3.47;3.05;;;12.00;99.90;;;;;;4965802;28;20560;-67
2021/04/30 08:34:15;;;;;;;6.40;2.45;;;12.20;99.90;;;;;;4964469;28;21149;-68
2021/04/30 08:36:41;;;;;;;9.95;3.25;;;12.40;99.90;;;;;;4960198;28;20031;-67
2021/04/30 08:39:08;;;;;;;9.18;3.95;;;12.10;99.90;;;;;;4979877;28;20035;-67
2021/04/30 08:41:37;;;;;;;5.68;3.53;;;12.30;99.90;;;;;;4960419;28;20039;-67
2021/04/30 08:44:04;;;;;;;4.20;3.33;;;12.20;99.90;;;;;;4963842;28;20054;-68
2021/04/30 08:46:31;;;;;;;6.38;3.40;;;12.50;99.90;;;;;;4961525;28;20030;-67
2021/04/30 08:49:10;;;;;;;8.88;3.13;;;12.40;99.90;;;;;;4971678;28;20049;-67
2021/04/30 08:51:36;;;;;;;2.90;2.70;;;12.40;99.90;;;;;;4965704;28;20081;-67
2021/04/30 08:54:03;;;;;;;3.03;2.72;;;12.40;99.90;;;;;;4964302;28;20035;-68
2021/04/30 08:56:29;;;;;;;3.33;2.63;;;12.70;99.90;;;;;;4957610;28;20058;-67
2021/04/30 08:58:56;;;;;;;5.38;3.05;;;12.70;99.90;;;;;;4956715;28;20074;-68
2021/04/30 09:01:22;;;;;;;3.88;2.55;;;12.60;99.90;;;;;;4958639;28;20493;-68
2021/04/30 09:03:48;;;;;;;3.08;2.70;;;12.70;99.90;;;;;;4956785;28;20167;-68
2021/04/30 09:06:18;;;;;;;4.57;3.08;;;12.70;99.90;;;;;;4964876;28;20035;-68
2021/04/30 09:08:49;;;;;;;3.00;2.55;;;12.70;99.90;;;;;;4961237;28;20027;-68
2021/04/30 09:11:34;;;;;;;2.80;2.20;;;12.70;99.90;;;;;;4955249;28;20047;-68
2021/04/30 09:14:20;;;;;;;3.15;2.10;;;12.50;99.90;;;;;;4964547;28;20018;-68
2021/04/30 09:17:05;;;;;;;3.17;2.65;;;12.20;99.90;;;;;;4959235;28;20043;-68
2021/04/30 09:19:36;;;;;;;2.47;2.28;;;12.30;99.90;;;;;;4962409;28;20043;-68
2021/04/30 09:22:07;;;;;;;2.70;2.47;;;12.50;99.90;;;;;;4963596;28;20023;-68
2021/04/30 09:24:34;;;;;;;4.38;2.42;;;12.50;99.90;;;;;;4971082;28;20058;-67
2021/04/30 09:27:01;;;;;;;2.65;2.38;;;12.60;99.90;;;;;;4965231;28;20676;-68
2021/04/30 09:29:29;;;;;;;2.78;2.03;;;12.50;99.90;;;;;;4971308;28;20074;-69
2021/04/30 09:31:55;;;;;;;3.05;2.15;;;12.70;99.90;;;;;;4961881;28;20046;-69
2021/04/30 09:34:35;;;;;;;2.80;1.48;;;12.90;99.90;;;;;;4968395;28;20427;-68
2021/04/30 09:37:17;;;;;;;2.85;1.80;;;13.00;99.90;;;;;;4959620;28;20027;-68
2021/04/30 09:39:59;;;;;;;3.03;1.90;;;12.80;99.90;;;;;;4968271;28;20525;-67
2021/04/30 09:42:30;;;;;;;2.42;2.10;;;13.00;99.90;;;;;;4960826;28;20030;-66
2021/04/30 09:45:02;;;;;;;4.88;1.92;;;12.90;99.90;;;;;;4957612;28;20484;-66
2021/04/30 09:47:29;;;;;;;2.15;2.00;;;12.70;99.90;;;;;;4964185;28;20578;-66
2021/04/30 09:49:56;;;;;;;2.50;2.00;;;12.90;99.90;;;;;;4956030;28;20111;-67
2021/04/30 09:52:23;;;;;;;1.95;1.73;;;12.90;99.90;;;;;;4964072;28;20031;-66
2021/04/30 09:54:50;;;;;;;2.80;2.03;;;13.10;99.90;;;;;;4957594;28;20085;-67
2021/04/30 09:57:19;;;;;;;2.78;1.75;;;13.20;99.90;;;;;;4963012;28;20039;-66
2021/04/30 10:00:14;;;;;;;2.20;1.95;;;13.30;99.90;;;;;;4969827;28;20031;-66
2021/04/30 10:02:40;;;;;;;3.95;2.45;;;13.30;99.90;;;;;;4956532;28;20505;-67
2021/04/30 10:05:22;;;;;;;3.28;2.00;;;13.50;99.90;;;;;;4968714;28;20416;-66
2021/04/30 10:07:48;;;;;;;4.20;2.17;;;13.80;99.90;;;;;;4966270;28;20515;-66
2021/04/30 10:10:14;;;;;;;2.90;2.03;;;13.60;99.90;;;;;;4968582;28;20053;-66
2021/04/30 10:12:42;;;;;;;4.53;2.13;;;13.80;99.90;;;;;;4966138;28;20022;-67
2021/04/30 10:15:10;;;;;;;3.10;1.98;;;13.90;99.90;;;;;;4968522;28;20114;-66
2021/04/30 10:17:38;;;;;;;6.13;1.98;;;13.90;99.90;;;;;;4957930;28;20035;-67
2021/04/30 10:20:08;;;;;;;2.78;2.05;;;14.20;99.90;;;;;;4958270;28;22694;-66
2021/04/30 10:22:36;;;;;;;2.90;1.50;;;14.20;99.90;;;;;;4960255;28;20028;-67
2021/04/30 10:25:06;;;;;;;2.90;1.95;;;14.50;99.90;;;;;;4961963;28;20027;-66
2021/04/30 10:27:37;;;;;;;2.28;1.58;;;14.70;99.90;;;;;;4961204;28;20566;-66
2021/04/30 10:30:30;;;;;;;2.67;1.80;;;14.80;99.90;;;;;;4956971;28;20039;-66
2021/04/30 10:33:10;;;;;;;2.15;1.80;;;14.90;99.90;;;;;;4966422;28;20046;-67
2021/04/30 10:35:47;;;;;;;3.33;2.15;;;14.80;99.90;;;;;;4966854;28;20034;-67
2021/04/30 10:38:16;;;;;;;1.95;1.65;;;14.80;99.90;;;;;;4965580;28;20114;-67
2021/04/30 10:41:00;;;;;;;3.60;2.03;;;14.60;99.90;;;;;;4962257;28;20039;-67
2021/04/30 10:43:26;;;;;;;2.33;1.77;;;14.80;99.90;;;;;;4958924;28;20040;-67
2021/04/30 10:45:59;;;;;;;4.95;1.92;;;15.00;99.90;;;;;;4961657;28;20027;-67
2021/04/30 10:48:25;;;;;;;3.20;1.88;;;15.10;99.90;;;;;;4954700;28;20125;-67
2021/04/30 10:50:51;;;;;;;3.85;1.80;;;15.10;99.90;;;;;;4957802;28;20125;-67
2021/04/30 10:53:27;;;;;;;3.05;2.10;;;15.10;99.90;;;;;;4955213;28;20154;-67
2021/04/30 10:55:53;;;;;;;;;;;15.10;99.90;;;;;;4953044;28;20533;-67
2021/04/30 10:58:37;;;;;;;6.35;1.90;;;15.00;99.90;;;;;;4968451;28;19914;-66
2021/04/30 11:01:25;;;;;;;1.92;1.60;;;14.70;99.90;;;;;;4956200;28;20496;-67
2021/04/30 11:04:09;;;;;;;2.20;2.00;;;14.70;99.90;;;;;;4965819;28;20023;-66
2021/04/30 11:06:47;;;;;;;2.80;1.63;;;14.70;99.90;;;;;;4961382;28;20113;-66
2021/04/30 11:09:27;;;;;;;2.53;1.70;;;14.80;99.90;;;;;;4951463;28;20063;-66
2021/04/30 11:11:53;;;;;;;5.00;1.98;;;14.50;99.90;;;;;;4964891;28;20122;-65
2021/04/30 11:14:34;;;;;;;3.47;1.63;;;14.40;99.90;;;;;;4965736;28;20118;-66
2021/04/30 11:17:01;;;;;;;5.57;2.22;;;14.60;99.90;;;;;;4963486;28;20023;-67
2021/04/30 11:19:29;;;;;;;2.30;1.77;;;14.70;99.90;;;;;;4968733;28;20165;-66
2021/04/30 11:22:09;;;;;;;4.95;1.75;;;14.90;99.90;;;;;;4964977;28;20507;-67
2021/04/30 11:24:40;;;;;;;4.55;1.80;;;14.70;99.90;;;;;;4966853;28;20031;-66
2021/04/30 11:27:11;;;;;;;3.53;2.00;;;14.80;99.90;;;;;;4970613;28;20023;-66
2021/04/30 11:29:39;;;;;;;3.88;1.55;;;14.90;99.90;;;;;;4969016;28;20054;-66
2021/04/30 11:32:24;;;;;;;2.85;1.52;;;14.80;99.90;;;;;;4968702;28;20077;-66
2021/04/30 11:34:51;;;;;;;2.17;1.90;;;14.70;99.90;;;;;;4968149;28;20026;-66
2021/04/30 11:37:19;;;;;;;2.22;1.60;;;14.80;99.90;;;;;;4962865;28;20029;-67
2021/04/30 11:39:46;;;;;;;2.78;1.92;;;14.90;99.90;;;;;;4956472;28;20055;-67
2021/04/30 11:42:13;;;;;;;2.03;1.58;;;14.90;99.90;;;;;;4966747;28;20073;-67
2021/04/30 11:44:41;;;;;;;2.17;1.17;;;14.70;99.90;;;;;;4959856;28;20011;-67
2021/04/30 11:47:07;;;;;;;1.60;1.20;;;14.80;99.90;;;;;;4961491;28;20027;-66
2021/04/30 11:49:36;;;;;;;2.63;1.10;;;14.90;99.90;;;;;;4969832;28;20614;-66
2021/04/30 11:52:03;;;;;;;3.55;1.05;;;15.10;99.90;;;;;;4968154;28;20030;-67
2021/04/30 11:54:31;;;;;;;2.53;1.35;;;15.50;99.90;;;;;;4967505;28;20038;-66
2021/04/30 11:57:08;;;;;;;2.65;1.40;;;15.70;99.90;;;;;;4962507;28;20171;-67
2021/04/30 11:59:36;;;;;;;1.35;1.02;;;16.10;99.90;;;;;;4955608;28;20494;-66
2021/04/30 12:02:07;;;;;;;2.00;1.30;;;16.30;99.90;;;;;;4960178;28;20023;-66
2021/04/30 12:04:50;;;;;;;1.77;1.25;;;15.90;99.90;;;;;;4970812;28;20031;-66
2021/04/30 12:07:18;;;;;;;1.90;1.10;;;16.00;99.90;;;;;;4962668;28;20042;-66
2021/04/30 12:09:45;;;;;;;2.15;1.30;;;15.90;99.90;;;;;;4972487;28;20046;-67
2021/04/30 12:12:38;;;;;;;2.38;1.30;;;16.00;99.90;;;;;;4963610;28;20034;-67
2021/04/30 12:15:11;;;;;;;1.55;1.10;;;15.90;99.90;;;;;;4954940;28;20039;-66
2021/04/30 12:17:41;;;;;;;1.70;1.40;;;15.50;99.90;;;;;;4960586;28;20148;-67
2021/04/30 12:20:11;;;;;;;1.60;1.35;;;15.50;99.90;;;;;;4961612;28;20034;-66
2021/04/30 12:23:04;;;;;;;2.15;1.08;;;15.90;99.90;;;;;;4960954;28;20023;-66
2021/04/30 12:25:34;;;;;;;1.58;1.48;;;15.70;99.90;;;;;;4957311;28;20097;-66
2021/04/30 12:28:30;;;;;;;3.38;1.58;;;15.90;99.90;;;;;;4954254;28;20023;-67
2021/04/30 12:31:03;;;;;;;1.90;1.30;;;15.70;99.90;;;;;;4949263;28;20093;-67
2021/04/30 12:33:34;;;;;;;3.65;1.75;;;15.60;99.90;;;;;;4962458;28;20031;-67
2021/04/30 12:36:08;;;;;;;1.92;1.30;;;15.40;99.90;;;;;;4965980;28;20057;-67
2021/04/30 12:38:35;;;;;;;2.30;1.77;;;15.60;99.90;;;;;;4969538;28;20026;-66
2021/04/30 12:41:07;;;;;;;2.65;1.60;;;15.50;99.90;;;;;;4966155;28;20491;-67
2021/04/30 12:43:35;;;;;;;1.98;1.42;;;15.20;99.90;;;;;;4971877;28;20058;-66
2021/04/30 12:46:19;;;;;;;1.25;1.10;;;15.60;99.90;;;;;;4969815;28;20023;-67
2021/04/30 12:48:51;;;;;;;1.88;1.42;;;15.70;99.90;;;;;;4971009;28;20054;-65
2021/04/30 12:51:22;;;;;;;4.22;1.45;;;15.70;99.90;;;;;;4968925;28;20023;-67
2021/04/30 12:53:48;;;;;;;2.03;1.10;;;15.80;99.90;;;;;;4969939;28;20512;-65